createdAt,value
2023-01-30T00:00:10.610Z,3.79
2023-01-30T00:02:59.413Z,3.59
2023-01-30T00:05:28.510Z,3.39
2023-01-30T00:07:57.062Z,2.91
2023-01-30T00:10:26.146Z,3.30
2023-01-30T00:12:54.727Z,3.70
2023-01-30T00:15:25.074Z,3.92
2023-01-30T00:17:53.661Z,3.84
2023-01-30T00:20:22.830Z,4.17
2023-01-30T00:23:00.393Z,3.56
2023-01-30T00:25:31.626Z,3.53
2023-01-30T00:28:01.640Z,3.45
2023-01-30T00:30:32.972Z,3.52
2023-01-30T00:33:01.538Z,3.54
2023-01-30T00:35:30.423Z,2.76
2023-01-30T00:38:00.595Z,3.07
2023-01-30T00:40:30.912Z,3.11
2023-01-30T00:43:17.183Z,2.93
2023-01-30T00:46:05.707Z,2.92
2023-01-30T00:48:34.851Z,3.36
2023-01-30T00:51:03.756Z,3.95
2023-01-30T00:53:32.375Z,3.89
2023-01-30T00:56:01.317Z,3.35
2023-01-30T00:58:29.913Z,3.67
2023-01-30T01:01:00.201Z,3.11
2023-01-30T01:03:28.952Z,2.88
2023-01-30T01:05:57.809Z,2.76
2023-01-30T01:08:26.318Z,2.96
2023-01-30T01:10:55.160Z,3.13
2023-01-30T01:13:23.712Z,2.81
2023-01-30T01:15:52.639Z,2.90
2023-01-30T01:18:22.526Z,3.06
2023-01-30T01:20:51.433Z,3.44
2023-01-30T01:23:19.957Z,2.99
2023-01-30T01:25:52.322Z,3.04
2023-01-30T01:28:22.326Z,3.00
2023-01-30T01:30:51.451Z,3.20
2023-01-30T01:33:20.057Z,3.08
2023-01-30T01:35:50.317Z,3.18
2023-01-30T01:38:18.958Z,3.30
2023-01-30T01:41:02.042Z,3.23
2023-01-30T01:43:33.679Z,2.90
2023-01-30T01:46:09.960Z,2.97
2023-01-30T01:48:44.120Z,2.82
2023-01-30T01:51:20.604Z,2.87
2023-01-30T01:53:56.258Z,2.88
2023-01-30T01:56:25.900Z,2.85
2023-01-30T01:58:59.493Z,3.04
2023-01-30T02:01:30.948Z,2.96
2023-01-30T02:04:05.108Z,3.15
2023-01-30T02:06:35.500Z,3.19
2023-01-30T02:09:08.221Z,3.10
2023-01-30T02:11:43.977Z,2.97
2023-01-30T02:14:14.893Z,2.88
2023-01-30T02:16:45.772Z,3.01
2023-01-30T02:19:25.270Z,3.13
2023-01-30T02:22:31.828Z,3.32
2023-01-30T02:25:24.500Z,3.36
2023-01-30T02:28:31.372Z,3.06
2023-01-30T02:31:15.715Z,3.22
2023-01-30T02:33:56.702Z,2.89
2023-01-30T02:36:36.164Z,2.86
2023-01-30T02:39:11.497Z,3.20
2023-01-30T02:41:54.641Z,3.82
2023-01-30T02:44:28.829Z,4.32
2023-01-30T02:47:03.883Z,4.12
2023-01-30T02:49:40.170Z,4.05
2023-01-30T02:52:11.892Z,4.33
2023-01-30T02:54:41.038Z,4.42
2023-01-30T02:57:21.040Z,4.62
2023-01-30T02:59:56.540Z,4.20
2023-01-30T03:02:39.289Z,4.77
2023-01-30T03:05:40.407Z,5.07
2023-01-30T03:08:21.517Z,4.52
2023-01-30T03:10:59.848Z,4.12
2023-01-30T03:13:42.004Z,4.36
2023-01-30T03:16:15.803Z,4.86
2023-01-30T03:18:48.813Z,4.57
2023-01-30T03:21:20.320Z,4.63
2023-01-30T03:23:48.915Z,4.56
2023-01-30T03:26:21.527Z,4.77
2023-01-30T03:28:52.788Z,4.81
2023-01-30T03:31:22.288Z,5.17
2023-01-30T03:33:52.396Z,4.33
2023-01-30T03:36:21.311Z,4.37
2023-01-30T03:38:49.932Z,4.34
2023-01-30T03:41:19.264Z,4.92
2023-01-30T03:43:47.786Z,5.10
2023-01-30T03:46:18.046Z,4.97
2023-01-30T03:48:46.880Z,5.12
2023-01-30T03:51:17.452Z,4.95
2023-01-30T03:53:45.993Z,5.35
2023-01-30T03:56:15.278Z,5.60
2023-01-30T03:58:43.938Z,5.36
2023-01-30T04:01:19.876Z,5.33
2023-01-30T04:03:48.923Z,5.14
2023-01-30T04:06:19.866Z,4.88
2023-01-30T04:08:48.591Z,4.22
2023-01-30T04:11:30.278Z,4.01
2023-01-30T04:13:58.977Z,4.09
2023-01-30T04:16:28.742Z,3.66
2023-01-30T04:19:00.110Z,3.87
2023-01-30T04:21:34.555Z,3.39
2023-01-30T04:24:03.284Z,2.79
2023-01-30T04:26:32.231Z,2.57
2023-01-30T04:29:00.901Z,2.75
2023-01-30T04:31:31.679Z,2.53
2023-01-30T04:34:08.492Z,2.57
2023-01-30T04:36:38.973Z,2.66
2023-01-30T04:39:07.501Z,2.65
2023-01-30T04:41:36.343Z,2.46
2023-01-30T04:44:06.104Z,2.51
2023-01-30T04:46:42.703Z,2.62
2023-01-30T04:49:13.873Z,2.40
2023-01-30T04:51:44.470Z,2.30
2023-01-30T04:54:13.118Z,2.75
2023-01-30T04:56:43.512Z,3.01
2023-01-30T04:59:12.173Z,3.13
2023-01-30T05:01:45.070Z,3.01
2023-01-30T05:04:14.121Z,3.10
2023-01-30T05:06:44.651Z,3.04
2023-01-30T05:09:13.345Z,3.18
2023-01-30T05:11:42.228Z,2.95
2023-01-30T05:14:10.885Z,2.56
2023-01-30T05:16:39.739Z,2.41
2023-01-30T05:19:08.282Z,2.58
2023-01-30T05:21:37.142Z,2.50
2023-01-30T05:24:08.015Z,2.45
2023-01-30T05:26:36.903Z,2.53
2023-01-30T05:29:05.573Z,2.26
2023-01-30T05:31:35.800Z,2.24
2023-01-30T05:34:04.429Z,2.26
2023-01-30T05:36:33.309Z,2.49
2023-01-30T05:39:01.869Z,2.65
2023-01-30T05:41:32.225Z,2.66
2023-01-30T05:44:00.911Z,2.62
2023-01-30T05:46:29.863Z,2.59
2023-01-30T05:48:58.408Z,2.40
2023-01-30T05:51:28.474Z,2.21
2023-01-30T05:53:57.043Z,1.91
2023-01-30T05:56:25.949Z,2.06
2023-01-30T05:58:57.997Z,1.97
2023-01-30T06:01:28.109Z,2.01
2023-01-30T06:03:57.034Z,2.03
2023-01-30T06:06:26.694Z,2.03
2023-01-30T06:08:56.708Z,2.14
2023-01-30T06:11:26.252Z,1.92
2023-01-30T06:13:56.332Z,1.99
2023-01-30T06:16:25.304Z,2.03
2023-01-30T06:18:54.046Z,2.08
2023-01-30T06:21:23.132Z,2.22
2023-01-30T06:23:51.722Z,2.63
2023-01-30T06:26:20.641Z,2.46
2023-01-30T06:28:49.899Z,2.62
2023-01-30T06:31:20.264Z,2.42
2023-01-30T06:33:49.451Z,2.38
2023-01-30T06:36:18.485Z,2.46
2023-01-30T06:38:47.137Z,2.36
2023-01-30T06:41:16.009Z,2.40
2023-01-30T06:43:44.596Z,2.81
2023-01-30T06:46:13.542Z,2.66
2023-01-30T06:48:43.608Z,2.79
2023-01-30T06:51:12.732Z,2.49
2023-01-30T06:53:41.296Z,2.47
2023-01-30T06:56:10.264Z,2.53
2023-01-30T06:58:38.929Z,2.84
2023-01-30T07:01:07.669Z,2.77
2023-01-30T07:03:36.229Z,2.88
2023-01-30T07:06:06.919Z,3.12
2023-01-30T07:08:35.591Z,3.13
2023-01-30T07:11:06.131Z,2.99
2023-01-30T07:13:34.660Z,2.58
2023-01-30T07:16:03.666Z,2.88
2023-01-30T07:18:32.245Z,3.11
2023-01-30T07:21:01.004Z,2.87
2023-01-30T07:23:30.988Z,2.82
2023-01-30T07:26:00.142Z,3.24
2023-01-30T07:28:28.774Z,2.96
2023-01-30T07:31:00.684Z,3.45
2023-01-30T07:33:29.470Z,3.97
2023-01-30T07:35:58.557Z,4.33
2023-01-30T07:38:27.289Z,3.90
2023-01-30T07:40:58.842Z,3.64
2023-01-30T07:43:27.621Z,3.52
2023-01-30T07:45:56.544Z,3.41
2023-01-30T07:48:25.085Z,3.73
2023-01-30T07:50:57.627Z,4.43
2023-01-30T07:53:26.858Z,4.90
2023-01-30T07:55:57.106Z,5.22
2023-01-30T07:58:25.651Z,5.44
2023-01-30T08:00:57.209Z,4.96
2023-01-30T08:03:25.983Z,5.50
2023-01-30T08:05:55.332Z,5.84
2023-01-30T08:08:24.071Z,6.23
2023-01-30T08:10:53.009Z,6.49
2023-01-30T08:13:23.121Z,6.73
2023-01-30T08:15:52.009Z,6.93
2023-01-30T08:18:20.568Z,6.48
2023-01-30T08:20:49.544Z,6.47
2023-01-30T08:23:18.071Z,6.22
2023-01-30T08:25:46.896Z,5.58
2023-01-30T08:28:15.453Z,5.33
2023-01-30T08:30:45.726Z,5.35
2023-01-30T08:33:14.347Z,5.15
2023-01-30T08:35:43.257Z,4.78
2023-01-30T08:38:11.924Z,4.28
2023-01-30T08:40:41.071Z,4.59
2023-01-30T08:43:10.306Z,4.26
2023-01-30T08:45:39.414Z,4.65
2023-01-30T08:48:09.583Z,5.40
2023-01-30T08:50:38.453Z,4.84
2023-01-30T08:53:09.215Z,4.27
2023-01-30T08:55:38.091Z,4.92
2023-01-30T08:58:06.613Z,4.21
2023-01-30T09:00:35.500Z,4.55
2023-01-30T09:03:04.100Z,5.19
2023-01-30T09:05:34.531Z,5.30
2023-01-30T09:08:03.233Z,5.68
2023-01-30T09:10:32.340Z,4.57
2023-01-30T09:13:00.922Z,4.93
2023-01-30T09:15:30.231Z,5.60
2023-01-30T09:17:58.884Z,5.76
2023-01-30T09:20:28.071Z,5.99
2023-01-30T09:22:58.021Z,6.32
2023-01-30T09:25:27.135Z,6.24
2023-01-30T09:27:55.698Z,6.70
2023-01-30T09:30:24.652Z,5.10
2023-01-30T09:32:53.312Z,5.57
2023-01-30T09:35:22.115Z,5.70
2023-01-30T09:37:51.401Z,4.41
2023-01-30T09:40:24.863Z,4.28
2023-01-30T09:43:11.188Z,4.55
2023-01-30T09:45:51.123Z,4.34
2023-01-30T09:48:24.135Z,4.40
2023-01-30T09:51:23.460Z,4.60
2023-01-30T09:54:09.864Z,5.06
2023-01-30T09:56:40.141Z,5.40
2023-01-30T09:59:19.276Z,5.17
2023-01-30T10:01:57.632Z,5.54
2023-01-30T10:04:32.850Z,5.34
2023-01-30T10:07:16.375Z,5.02
2023-01-30T10:09:55.870Z,4.70
2023-01-30T10:12:38.075Z,4.64
2023-01-30T10:15:22.097Z,5.05
2023-01-30T10:18:24.327Z,5.37
2023-01-30T10:21:05.683Z,4.51
2023-01-30T10:23:50.464Z,4.10
2023-01-30T10:26:23.410Z,3.83
2023-01-30T10:29:08.110Z,4.05
2023-01-30T10:31:43.577Z,4.07
2023-01-30T10:34:16.399Z,4.00
2023-01-30T10:36:53.743Z,4.48
2023-01-30T10:39:30.027Z,4.58
2023-01-30T10:42:07.801Z,4.45
2023-01-30T10:44:39.320Z,3.96
2023-01-30T10:47:41.684Z,3.66
2023-01-30T10:50:19.001Z,3.56
2023-01-30T10:52:58.238Z,3.23
2023-01-30T10:56:02.506Z,3.46
2023-01-30T10:58:41.520Z,3.54
2023-01-30T11:01:19.988Z,3.44
2023-01-30T11:03:54.908Z,3.47
2023-01-30T11:06:25.814Z,3.35
2023-01-30T11:08:55.601Z,3.37
2023-01-30T11:11:27.901Z,3.36
2023-01-30T11:14:04.397Z,3.68
2023-01-30T11:16:43.284Z,4.05
2023-01-30T11:19:21.865Z,3.80
2023-01-30T11:21:53.136Z,4.01
2023-01-30T11:24:25.141Z,4.74
2023-01-30T11:26:54.127Z,4.78
2023-01-30T11:29:31.957Z,4.52
2023-01-30T11:32:06.766Z,5.18
2023-01-30T11:34:35.596Z,5.32
2023-01-30T11:37:16.117Z,5.34
2023-01-30T11:39:52.985Z,5.83
2023-01-30T11:42:26.669Z,6.14
2023-01-30T11:45:15.700Z,6.50
2023-01-30T11:47:57.801Z,6.96
2023-01-30T11:50:37.040Z,7.13
2023-01-30T11:53:22.623Z,7.57
2023-01-30T11:56:03.016Z,7.83
2023-01-30T11:58:35.218Z,8.03
2023-01-30T12:01:05.399Z,8.28
2023-01-30T12:03:48.710Z,8.25
2023-01-30T12:06:25.384Z,8.65
2023-01-30T12:08:56.560Z,8.64
2023-01-30T12:11:28.623Z,8.28
2023-01-30T12:14:08.362Z,8.31
2023-01-30T12:16:51.608Z,8.73
2023-01-30T12:19:32.621Z,8.90
2023-01-30T12:22:10.142Z,8.48
2023-01-30T12:24:45.770Z,8.14
2023-01-30T12:27:22.248Z,8.37
2023-01-30T12:30:00.531Z,8.60
2023-01-30T12:32:32.312Z,8.61
2023-01-30T12:35:02.999Z,7.85
2023-01-30T12:37:47.336Z,7.40
2023-01-30T12:40:28.648Z,7.35
2023-01-30T12:43:14.059Z,7.18
2023-01-30T12:45:51.023Z,6.56
2023-01-30T12:49:07.889Z,6.67
2023-01-30T12:51:56.399Z,7.43
2023-01-30T12:54:40.397Z,7.66
2023-01-30T12:57:19.042Z,7.94
2023-01-30T13:00:06.888Z,7.83
2023-01-30T13:03:02.272Z,8.16
2023-01-30T13:05:40.694Z,8.53
2023-01-30T13:08:28.963Z,8.06
2023-01-30T13:11:10.403Z,8.18
2023-01-30T13:13:48.353Z,8.32
2023-01-30T13:16:27.506Z,8.81
2023-01-30T13:19:01.364Z,8.97
2023-01-30T13:21:36.061Z,8.76
2023-01-30T13:24:20.090Z,8.65
2023-01-30T13:26:51.887Z,8.36
2023-01-30T13:29:29.745Z,8.31
2023-01-30T13:32:03.081Z,8.11
2023-01-30T13:34:37.340Z,7.97
2023-01-30T13:37:10.038Z,7.67
2023-01-30T13:39:46.173Z,7.65
2023-01-30T13:42:26.868Z,7.96
2023-01-30T13:44:57.418Z,7.56
2023-01-30T13:47:42.839Z,7.73
2023-01-30T13:50:27.977Z,7.63
2023-01-30T13:53:04.041Z,8.11
2023-01-30T13:55:43.053Z,8.10
2023-01-30T13:58:27.539Z,8.26
2023-01-30T14:00:57.376Z,7.87
2023-01-30T14:03:31.744Z,7.51
2023-01-30T14:06:14.345Z,7.30
2023-01-30T14:08:59.256Z,7.96
2023-01-30T14:11:38.544Z,8.14
2023-01-30T14:14:25.806Z,8.28
2023-01-30T14:16:57.843Z,8.19
2023-01-30T14:19:36.146Z,8.39
2023-01-30T14:22:20.165Z,8.53
2023-01-30T14:25:21.933Z,8.80
2023-01-30T14:27:53.357Z,8.67
2023-01-30T14:30:37.633Z,8.85
2023-01-30T14:33:34.653Z,8.17
2023-01-30T14:36:34.092Z,8.41
2023-01-30T14:39:39.879Z,8.47
2023-01-30T14:42:30.312Z,8.58
2023-01-30T14:45:03.463Z,8.44
2023-01-30T14:47:39.376Z,8.47
2023-01-30T14:50:21.793Z,8.38
2023-01-30T14:52:55.986Z,8.22
2023-01-30T14:55:29.560Z,8.47
2023-01-30T14:58:02.735Z,8.22
2023-01-30T15:00:39.044Z,8.39
2023-01-30T15:03:17.808Z,8.42
2023-01-30T15:05:49.071Z,8.46
2023-01-30T15:08:23.852Z,8.32
2023-01-30T15:11:09.814Z,7.77
2023-01-30T15:13:47.827Z,7.77
2023-01-30T15:16:43.711Z,7.33
2023-01-30T15:19:27.160Z,6.78
2023-01-30T15:22:07.757Z,6.51
2023-01-30T15:25:05.143Z,6.74
2023-01-30T15:27:51.209Z,6.89
2023-01-30T15:30:25.991Z,7.23
2023-01-30T15:33:22.954Z,7.52
2023-01-30T15:35:58.095Z,7.61
2023-01-30T15:38:30.176Z,7.71
2023-01-30T15:41:02.160Z,7.78
2023-01-30T15:43:53.784Z,7.83
2023-01-30T15:46:31.822Z,7.90
2023-01-30T15:49:20.674Z,7.87
2023-01-30T15:51:49.423Z,7.81
2023-01-30T15:54:21.067Z,7.91
2023-01-30T15:56:50.895Z,7.94
2023-01-30T15:59:34.499Z,8.06
2023-01-30T16:02:08.012Z,8.05
2023-01-30T16:04:38.529Z,8.09
2023-01-30T16:07:17.744Z,8.33
2023-01-30T16:10:07.016Z,8.34
2023-01-30T16:12:38.051Z,8.23
2023-01-30T16:15:19.373Z,8.26
2023-01-30T16:17:58.781Z,8.36
2023-01-30T16:20:33.445Z,8.36
2023-01-30T16:23:02.732Z,8.35
2023-01-30T16:25:34.519Z,8.34
2023-01-30T16:28:03.302Z,8.35
2023-01-30T16:30:32.349Z,8.03
2023-01-30T16:33:09.881Z,7.58
2023-01-30T16:35:46.964Z,7.84
2023-01-30T16:38:35.663Z,7.93
2023-01-30T16:41:05.224Z,7.80
2023-01-30T16:43:35.034Z,7.75
2023-01-30T16:46:42.306Z,7.51
2023-01-30T16:49:18.708Z,7.30
2023-01-30T16:51:50.963Z,7.20
2023-01-30T16:54:24.152Z,7.15
2023-01-30T16:56:57.036Z,6.68
2023-01-30T16:59:32.278Z,6.69
2023-01-30T17:02:03.269Z,6.45
2023-01-30T17:04:35.821Z,6.37
2023-01-30T17:07:06.604Z,6.39
2023-01-30T17:09:43.119Z,6.44
2023-01-30T17:12:38.947Z,6.48
2023-01-30T17:15:33.348Z,6.46
2023-01-30T17:18:03.100Z,6.48
2023-01-30T17:20:41.761Z,6.58
2023-01-30T17:23:18.375Z,6.70
2023-01-30T17:25:49.321Z,6.86
2023-01-30T17:28:21.695Z,6.89
2023-01-30T17:30:51.016Z,6.73
2023-01-30T17:33:20.186Z,6.91
2023-01-30T17:35:49.015Z,6.71
2023-01-30T17:38:19.535Z,6.42
2023-01-30T17:40:48.205Z,6.29
2023-01-30T17:43:17.112Z,6.43
2023-01-30T17:45:46.531Z,6.59
2023-01-30T17:48:15.820Z,6.79
2023-01-30T17:50:44.467Z,6.67
2023-01-30T17:53:13.268Z,6.35
2023-01-30T17:55:43.329Z,6.36
2023-01-30T17:58:18.168Z,6.45
2023-01-30T18:00:46.761Z,6.22
2023-01-30T18:03:15.701Z,6.35
2023-01-30T18:05:44.376Z,6.11
2023-01-30T18:08:14.202Z,6.13
2023-01-30T18:10:44.167Z,6.34
2023-01-30T18:13:13.124Z,6.66
2023-01-30T18:15:42.993Z,6.67
2023-01-30T18:18:16.122Z,6.34
2023-01-30T18:20:45.529Z,6.79
2023-01-30T18:23:16.495Z,6.99
2023-01-30T18:25:46.386Z,7.25
2023-01-30T18:28:15.359Z,7.31
2023-01-30T18:30:43.910Z,7.40
2023-01-30T18:33:12.940Z,7.54
2023-01-30T18:35:41.449Z,7.66
2023-01-30T18:38:10.329Z,7.54
2023-01-30T18:40:39.798Z,7.66
2023-01-30T18:43:10.035Z,7.85
2023-01-30T18:45:38.904Z,7.92
2023-01-30T18:48:08.370Z,8.04
2023-01-30T18:50:37.698Z,8.16
2023-01-30T18:53:07.440Z,8.07
2023-01-30T18:55:36.320Z,8.14
2023-01-30T18:58:05.268Z,8.04
2023-01-30T19:00:35.293Z,7.98
2023-01-30T19:03:04.205Z,8.06
2023-01-30T19:05:32.783Z,8.20
2023-01-30T19:08:01.849Z,8.25
2023-01-30T19:10:30.868Z,8.32
2023-01-30T19:13:17.454Z,8.31
2023-01-30T19:15:47.833Z,8.41
2023-01-30T19:18:16.764Z,8.43
2023-01-30T19:20:45.319Z,8.42
2023-01-30T19:23:14.254Z,8.33
2023-01-30T19:25:42.964Z,8.38
2023-01-30T19:28:11.777Z,8.34
2023-01-30T19:30:40.483Z,8.38
2023-01-30T19:33:10.844Z,8.46
2023-01-30T19:35:42.376Z,8.42
2023-01-30T19:38:11.751Z,8.47
2023-01-30T19:40:42.275Z,8.50
2023-01-30T19:43:12.184Z,8.57
2023-01-30T19:45:42.307Z,8.62
2023-01-30T19:48:13.388Z,8.62
2023-01-30T19:50:42.755Z,8.46
2023-01-30T19:53:12.011Z,8.52
2023-01-30T19:55:40.667Z,8.55
2023-01-30T19:58:09.830Z,8.53
2023-01-30T20:00:38.528Z,8.31
2023-01-30T20:03:08.088Z,8.13
2023-01-30T20:05:38.280Z,8.25
2023-01-30T20:08:07.270Z,8.26
2023-01-30T20:10:36.054Z,8.37
2023-01-30T20:13:05.082Z,8.49
2023-01-30T20:15:33.757Z,8.49
2023-01-30T20:18:02.600Z,8.31
2023-01-30T20:20:31.736Z,8.40
2023-01-30T20:23:02.564Z,8.48
2023-01-30T20:25:31.181Z,8.48
2023-01-30T20:28:00.036Z,8.46
2023-01-30T20:30:29.224Z,8.46
2023-01-30T20:32:58.044Z,8.39
2023-01-30T20:35:26.659Z,8.08
2023-01-30T20:37:55.465Z,7.16
2023-01-30T20:40:25.544Z,6.33
2023-01-30T20:42:54.910Z,6.17
2023-01-30T20:45:23.569Z,6.76
2023-01-30T20:47:52.452Z,7.06
2023-01-30T20:50:21.322Z,7.16
2023-01-30T20:52:51.537Z,6.67
2023-01-30T20:55:20.881Z,6.02
2023-01-30T20:57:51.595Z,5.73
2023-01-30T21:00:20.942Z,5.52
2023-01-30T21:02:52.520Z,4.98
2023-01-30T21:05:21.683Z,4.57
2023-01-30T21:07:50.842Z,4.39
2023-01-30T21:10:19.652Z,4.18
2023-01-30T21:12:48.906Z,4.61
2023-01-30T21:15:19.390Z,4.35
2023-01-30T21:17:48.523Z,4.11
2023-01-30T21:20:17.874Z,3.99
2023-01-30T21:22:46.776Z,4.17
2023-01-30T21:25:15.479Z,4.06
2023-01-30T21:27:44.593Z,4.08
2023-01-30T21:30:13.993Z,3.99
2023-01-30T21:32:44.473Z,3.97
2023-01-30T21:35:13.062Z,4.26
2023-01-30T21:37:59.502Z,4.66
2023-01-30T21:40:45.190Z,5.31
2023-01-30T21:43:17.071Z,5.80
2023-01-30T21:45:45.955Z,6.05
2023-01-30T21:48:16.418Z,6.40
2023-01-30T21:50:45.118Z,6.69
2023-01-30T21:53:14.042Z,6.95
2023-01-30T21:55:42.777Z,7.15
2023-01-30T21:58:11.635Z,7.30
2023-01-30T22:00:40.329Z,7.44
2023-01-30T22:03:09.299Z,7.50
2023-01-30T22:05:39.291Z,7.64
2023-01-30T22:08:08.133Z,7.69
2023-01-30T22:10:36.724Z,7.72
2023-01-30T22:13:05.698Z,7.65
2023-01-30T22:15:34.294Z,7.73
2023-01-30T22:18:04.049Z,7.57
2023-01-30T22:20:32.878Z,7.46
2023-01-30T22:23:03.134Z,7.71
2023-01-30T22:25:31.862Z,7.73
2023-01-30T22:28:01.754Z,7.48
2023-01-30T22:30:30.436Z,7.55
2023-01-30T22:32:59.446Z,7.65
2023-01-30T22:35:27.992Z,7.49
2023-01-30T22:37:56.876Z,7.65
2023-01-30T22:40:27.057Z,7.32
2023-01-30T22:42:56.022Z,7.52
2023-01-30T22:45:24.577Z,7.51
2023-01-30T22:47:53.471Z,7.60
2023-01-30T22:50:22.070Z,7.63
2023-01-30T22:52:50.880Z,7.75
2023-01-30T22:55:19.982Z,7.84
2023-01-30T22:57:50.317Z,7.94
2023-01-30T23:00:22.573Z,7.87
2023-01-30T23:02:51.497Z,7.82
2023-01-30T23:05:20.609Z,7.23
2023-01-30T23:07:49.673Z,7.23
2023-01-30T23:10:18.516Z,7.39
2023-01-30T23:13:04.503Z,7.33
2023-01-30T23:15:39.202Z,7.09
2023-01-30T23:18:25.387Z,7.28
2023-01-30T23:20:53.963Z,7.22
2023-01-30T23:23:22.859Z,6.65
2023-01-30T23:25:51.479Z,7.02
2023-01-30T23:28:20.470Z,6.50
2023-01-30T23:30:50.482Z,6.90
2023-01-30T23:33:19.430Z,6.97
2023-01-30T23:35:48.172Z,6.64
2023-01-30T23:38:18.979Z,6.86
2023-01-30T23:40:49.224Z,6.69
2023-01-30T23:43:18.250Z,6.88
2023-01-30T23:45:46.871Z,6.91
2023-01-30T23:48:17.105Z,6.52
2023-01-30T23:50:45.931Z,6.48
2023-01-30T23:53:14.875Z,6.32
2023-01-30T23:55:51.833Z,6.61
2023-01-30T23:58:20.824Z,6.67
